TVF371 LFPO-LFBZ
Flight info
| Callsign | TVF371 |
|---|---|
| Flight time | 1h 5m |
| Altitude | 35000 |
| Route | AGOPA DCT ARKIP DCT ARMAL DCT ARTAX DCT BEBIX DCT LMG DCT UVELI DCT OSMOB DCT VAVIX DCT MAGEC |
| Aircraft | B738/M-SDE2E3FGHIRWXY/LB1 |
Departure
| Time | 2026-04-25 10:44 |
|---|---|
| Airport | Paris-Orly Airport (LFPO) |
Arrival
| Time | 2026-04-25 11:49 |
|---|---|
| Airport | Biarritz Pays Basque airport (LFBZ) |
| Time | Latitude | Longitude | Altitude | Speed | Heading |
|---|---|---|---|---|---|
| 2026-04-25 10:10 | 48.72571 | 2.36132 | 297 ft | 0 kts | 348° |
| 2026-04-25 10:34 | 48.72553 | 2.36139 | 302 ft | 4 kts | 344° |
| 2026-04-25 10:35 | 48.72527 | 2.36152 | 302 ft | 4 kts | 332° |
| 2026-04-25 10:35 | 48.72507 | 2.36175 | 300 ft | 4 kts | 302° |
| 2026-04-25 10:35 | 48.72502 | 2.36201 | 301 ft | 0 kts | 254° |
| 2026-04-25 10:39 | 48.72500 | 2.36194 | 302 ft | 4 kts | 254° |
| 2026-04-25 10:39 | 48.72485 | 2.36114 | 302 ft | 9 kts | 254° |
| 2026-04-25 10:40 | 48.72471 | 2.36022 | 300 ft | 9 kts | 259° |
| 2026-04-25 10:40 | 48.72468 | 2.35961 | 298 ft | 9 kts | 272° |
| 2026-04-25 10:40 | 48.72475 | 2.35871 | 302 ft | 8 kts | 277° |
| 2026-04-25 10:40 | 48.72479 | 2.35782 | 299 ft | 9 kts | 268° |
| 2026-04-25 10:41 | 48.72463 | 2.35677 | 300 ft | 11 kts | 252° |
| 2026-04-25 10:41 | 48.72407 | 2.35621 | 298 ft | 11 kts | 171° |
| 2026-04-25 10:41 | 48.72336 | 2.35640 | 298 ft | 10 kts | 187° |
| 2026-04-25 10:41 | 48.72265 | 2.35602 | 299 ft | 11 kts | 193° |
| 2026-04-25 10:42 | 48.72189 | 2.35616 | 299 ft | 11 kts | 167° |
| 2026-04-25 10:42 | 48.72116 | 2.35646 | 298 ft | 11 kts | 162° |
| 2026-04-25 10:42 | 48.72047 | 2.35713 | 298 ft | 13 kts | 132° |
| 2026-04-25 10:42 | 48.71997 | 2.35838 | 300 ft | 14 kts | 118° |
| 2026-04-25 10:43 | 48.71964 | 2.35969 | 299 ft | 13 kts | 90° |
| 2026-04-25 10:43 | 48.72018 | 2.36273 | 301 ft | 63 kts | 75° |
| 2026-04-25 10:43 | 48.72200 | 2.37264 | 296 ft | 130 kts | 75° |
| 2026-04-25 10:43 | 48.72464 | 2.38806 | 558 ft | 161 kts | 75° |
| 2026-04-25 10:44 | 48.72765 | 2.40360 | 1612 ft | 146 kts | 69° |
| 2026-04-25 10:44 | 48.73068 | 2.41893 | 2312 ft | 162 kts | 79° |
| 2026-04-25 10:44 | 48.73341 | 2.43735 | 2841 ft | 195 kts | 73° |
| 2026-04-25 10:44 | 48.73791 | 2.45855 | 3075 ft | 226 kts | 73° |
| 2026-04-25 10:45 | 48.74136 | 2.48271 | 3557 ft | 248 kts | 85° |
| 2026-04-25 10:45 | 48.74197 | 2.50913 | 4408 ft | 256 kts | 89° |
| 2026-04-25 10:45 | 48.74262 | 2.53598 | 5396 ft | 255 kts | 88° |
| 2026-04-25 10:45 | 48.74225 | 2.56331 | 6105 ft | 264 kts | 103° |
| 2026-04-25 10:46 | 48.73423 | 2.58799 | 7007 ft | 265 kts | 129° |
| 2026-04-25 10:46 | 48.71927 | 2.60482 | 7770 ft | 273 kts | 155° |
| 2026-04-25 10:46 | 48.70072 | 2.61233 | 8624 ft | 279 kts | 168° |
| 2026-04-25 10:46 | 48.68137 | 2.61746 | 9408 ft | 285 kts | 169° |
| 2026-04-25 10:47 | 48.66184 | 2.62195 | 10185 ft | 291 kts | 175° |
| 2026-04-25 10:47 | 48.64150 | 2.61725 | 10674 ft | 309 kts | 201° |
| 2026-04-25 10:47 | 48.62332 | 2.59768 | 10852 ft | 337 kts | 227° |
| 2026-04-25 10:47 | 48.60788 | 2.56983 | 11264 ft | 351 kts | 230° |
| 2026-04-25 10:48 | 48.59248 | 2.54073 | 11897 ft | 359 kts | 231° |
| 2026-04-25 10:48 | 48.57670 | 2.51106 | 12601 ft | 363 kts | 231° |
| 2026-04-25 10:48 | 48.56068 | 2.48144 | 13433 ft | 364 kts | 230° |
| 2026-04-25 10:48 | 48.54438 | 2.45173 | 14163 ft | 370 kts | 230° |
| 2026-04-25 10:49 | 48.52789 | 2.42185 | 14934 ft | 372 kts | 230° |
| 2026-04-25 10:49 | 48.51122 | 2.39174 | 15687 ft | 375 kts | 229° |
| 2026-04-25 10:49 | 48.49436 | 2.36132 | 16388 ft | 380 kts | 229° |
| 2026-04-25 10:49 | 48.47734 | 2.33063 | 17128 ft | 384 kts | 229° |
| 2026-04-25 10:50 | 48.46032 | 2.29997 | 17843 ft | 387 kts | 229° |
| 2026-04-25 10:50 | 48.44295 | 2.26869 | 18540 ft | 392 kts | 229° |
| 2026-04-25 10:50 | 48.42539 | 2.23711 | 19036 ft | 393 kts | 229° |
| 2026-04-25 10:50 | 48.40787 | 2.20561 | 19134 ft | 392 kts | 228° |
| 2026-04-25 10:51 | 48.39028 | 2.17405 | 19155 ft | 396 kts | 229° |
| 2026-04-25 10:51 | 48.37255 | 2.14224 | 19223 ft | 400 kts | 228° |
| 2026-04-25 10:51 | 48.35458 | 2.11004 | 19839 ft | 401 kts | 228° |
| 2026-04-25 10:51 | 48.33665 | 2.07797 | 20659 ft | 399 kts | 228° |
| 2026-04-25 10:52 | 48.31874 | 2.04613 | 21335 ft | 400 kts | 226° |
| 2026-04-25 10:52 | 48.29718 | 2.01996 | 21841 ft | 401 kts | 206° |
| 2026-04-25 10:52 | 48.27114 | 2.00577 | 22438 ft | 400 kts | 189° |
| 2026-04-25 10:52 | 48.24341 | 2.00333 | 23070 ft | 400 kts | 178° |
| 2026-04-25 10:53 | 48.21552 | 2.00450 | 23637 ft | 403 kts | 177° |
| 2026-04-25 10:53 | 48.18734 | 2.00612 | 24084 ft | 407 kts | 177° |
| 2026-04-25 10:53 | 48.15882 | 2.00757 | 24543 ft | 410 kts | 177° |
| 2026-04-25 10:53 | 48.13022 | 2.00865 | 25007 ft | 413 kts | 178° |
| 2026-04-25 10:54 | 48.10174 | 2.00952 | 25449 ft | 415 kts | 178° |
| 2026-04-25 10:54 | 48.08215 | 2.01009 | 25745 ft | 417 kts | 178° |
| 2026-04-25 10:54 | 48.04355 | 2.01184 | 26316 ft | 421 kts | 177° |
| 2026-04-25 10:54 | 48.01415 | 2.01361 | 26747 ft | 423 kts | 176° |
| 2026-04-25 10:55 | 47.98459 | 2.01546 | 27120 ft | 427 kts | 176° |
| 2026-04-25 10:55 | 47.95477 | 2.01732 | 27541 ft | 429 kts | 176° |
| 2026-04-25 10:55 | 47.92484 | 2.01914 | 27920 ft | 432 kts | 176° |
| 2026-04-25 10:55 | 47.89469 | 2.02093 | 28304 ft | 435 kts | 176° |
| 2026-04-25 10:56 | 47.86425 | 2.02270 | 28723 ft | 437 kts | 176° |
| 2026-04-25 10:56 | 47.83377 | 2.02446 | 29020 ft | 441 kts | 176° |
| 2026-04-25 10:56 | 47.80300 | 2.02623 | 29342 ft | 444 kts | 176° |
| 2026-04-25 10:56 | 47.77201 | 2.02801 | 29730 ft | 446 kts | 177° |
| 2026-04-25 10:57 | 47.74095 | 2.02980 | 30057 ft | 448 kts | 176° |
| 2026-04-25 10:57 | 47.70978 | 2.03159 | 30480 ft | 447 kts | 176° |
| 2026-04-25 10:57 | 47.67918 | 2.03335 | 30885 ft | 446 kts | 176° |
| 2026-04-25 10:57 | 47.64812 | 2.03513 | 31236 ft | 447 kts | 176° |
| 2026-04-25 10:58 | 47.61708 | 2.03692 | 31585 ft | 447 kts | 176° |
| 2026-04-25 10:58 | 47.58598 | 2.03874 | 31944 ft | 447 kts | 176° |
| 2026-04-25 10:58 | 47.55492 | 2.04056 | 32276 ft | 447 kts | 176° |
| 2026-04-25 10:58 | 47.52373 | 2.04238 | 32637 ft | 447 kts | 176° |
| 2026-04-25 10:59 | 47.49267 | 2.04419 | 32984 ft | 447 kts | 176° |
| 2026-04-25 10:59 | 47.46149 | 2.04600 | 33311 ft | 448 kts | 176° |
| 2026-04-25 10:59 | 47.43028 | 2.04782 | 33642 ft | 449 kts | 176° |
| 2026-04-25 10:59 | 47.39908 | 2.04964 | 33984 ft | 449 kts | 176° |
| 2026-04-25 11:00 | 47.36786 | 2.05144 | 34273 ft | 449 kts | 176° |
| 2026-04-25 11:00 | 47.33649 | 2.05183 | 34527 ft | 451 kts | 182° |
| 2026-04-25 11:00 | 47.30531 | 2.04587 | 34803 ft | 452 kts | 188° |
| 2026-04-25 11:00 | 47.27427 | 2.03785 | 35073 ft | 452 kts | 189° |
| 2026-04-25 11:01 | 47.24370 | 2.02958 | 35112 ft | 454 kts | 189° |
| 2026-04-25 11:01 | 47.18129 | 2.01284 | 35119 ft | 456 kts | 189° |
| 2026-04-25 11:02 | 47.11878 | 1.99670 | 35123 ft | 455 kts | 189° |
| 2026-04-25 11:02 | 47.05643 | 1.98096 | 35119 ft | 454 kts | 189° |
| 2026-04-25 11:03 | 47.00179 | 1.96725 | 35120 ft | 454 kts | 190° |
| 2026-04-25 11:03 | 46.93946 | 1.95163 | 35126 ft | 455 kts | 189° |
| 2026-04-25 11:04 | 46.87671 | 1.93593 | 35146 ft | 460 kts | 189° |
| 2026-04-25 11:04 | 46.81337 | 1.92011 | 35127 ft | 463 kts | 190° |
| 2026-04-25 11:05 | 46.74956 | 1.90422 | 35123 ft | 463 kts | 190° |
| 2026-04-25 11:05 | 46.68633 | 1.88850 | 35122 ft | 463 kts | 191° |
| 2026-04-25 11:06 | 46.62267 | 1.87272 | 35120 ft | 463 kts | 191° |
| 2026-04-25 11:06 | 46.55910 | 1.85700 | 35118 ft | 463 kts | 191° |
| 2026-04-25 11:07 | 46.49607 | 1.84144 | 35121 ft | 462 kts | 191° |
| 2026-04-25 11:07 | 46.43263 | 1.82582 | 35118 ft | 461 kts | 191° |
| 2026-04-25 11:08 | 46.36940 | 1.81029 | 35124 ft | 460 kts | 192° |
| 2026-04-25 11:08 | 46.30633 | 1.79478 | 35125 ft | 459 kts | 193° |
| 2026-04-25 11:08 | 46.27570 | 1.78270 | 35118 ft | 455 kts | 204° |
| 2026-04-25 11:09 | 46.24705 | 1.76359 | 35125 ft | 451 kts | 212° |
| 2026-04-25 11:09 | 46.19738 | 1.70969 | 35126 ft | 446 kts | 224° |
| 2026-04-25 11:10 | 46.15102 | 1.65058 | 35137 ft | 445 kts | 224° |
| 2026-04-25 11:10 | 46.10456 | 1.59221 | 35132 ft | 444 kts | 223° |
| 2026-04-25 11:11 | 46.05783 | 1.53430 | 35124 ft | 444 kts | 223° |
| 2026-04-25 11:11 | 46.01068 | 1.47602 | 35140 ft | 443 kts | 223° |
| 2026-04-25 11:12 | 45.96438 | 1.41765 | 35141 ft | 440 kts | 228° |
| 2026-04-25 11:12 | 45.92913 | 1.34751 | 35155 ft | 434 kts | 245° |
| 2026-04-25 11:13 | 45.90227 | 1.26982 | 35159 ft | 434 kts | 245° |
| 2026-04-25 11:13 | 45.87532 | 1.19236 | 35155 ft | 434 kts | 245° |
| 2026-04-25 11:14 | 45.84783 | 1.11502 | 35165 ft | 435 kts | 245° |
| 2026-04-25 11:14 | 45.81839 | 1.03900 | 35150 ft | 438 kts | 236° |
| 2026-04-25 11:15 | 45.77618 | 0.97592 | 35168 ft | 441 kts | 222° |
| 2026-04-25 11:15 | 45.72893 | 0.92033 | 35156 ft | 443 kts | 221° |
| 2026-04-25 11:16 | 45.65753 | 0.83643 | 35169 ft | 443 kts | 221° |
| 2026-04-25 11:16 | 45.60999 | 0.77998 | 35165 ft | 443 kts | 221° |
| 2026-04-25 11:17 | 45.56263 | 0.72368 | 35162 ft | 443 kts | 221° |
| 2026-04-25 11:17 | 45.51555 | 0.66783 | 35166 ft | 442 kts | 221° |
| 2026-04-25 11:18 | 45.46822 | 0.61183 | 35167 ft | 442 kts | 221° |
| 2026-04-25 11:18 | 45.42097 | 0.55607 | 35170 ft | 441 kts | 221° |
| 2026-04-25 11:19 | 45.37379 | 0.50050 | 35167 ft | 439 kts | 221° |
| 2026-04-25 11:19 | 45.32660 | 0.44505 | 35170 ft | 438 kts | 221° |
| 2026-04-25 11:20 | 45.27997 | 0.39039 | 35170 ft | 437 kts | 221° |
| 2026-04-25 11:20 | 45.23302 | 0.33546 | 35168 ft | 436 kts | 220° |
| 2026-04-25 11:21 | 45.18621 | 0.28081 | 35162 ft | 436 kts | 220° |
| 2026-04-25 11:21 | 45.13918 | 0.22602 | 34596 ft | 440 kts | 220° |
| 2026-04-25 11:22 | 45.11555 | 0.19854 | 33968 ft | 439 kts | 220° |
| 2026-04-25 11:22 | 45.09988 | 0.18033 | 33493 ft | 439 kts | 220° |
| 2026-04-25 11:22 | 45.06833 | 0.14370 | 32794 ft | 434 kts | 220° |
| 2026-04-25 11:22 | 45.04505 | 0.11672 | 32278 ft | 431 kts | 220° |
| 2026-04-25 11:23 | 45.02194 | 0.08998 | 31809 ft | 427 kts | 220° |
| 2026-04-25 11:23 | 44.99905 | 0.06354 | 31364 ft | 423 kts | 220° |
| 2026-04-25 11:23 | 44.97667 | 0.03769 | 30926 ft | 418 kts | 220° |
| 2026-04-25 11:23 | 44.95421 | 0.01177 | 30455 ft | 415 kts | 220° |
| 2026-04-25 11:24 | 44.93187 | -0.01399 | 29954 ft | 411 kts | 220° |
| 2026-04-25 11:24 | 44.90987 | -0.03932 | 29464 ft | 406 kts | 220° |
| 2026-04-25 11:24 | 44.88808 | -0.06439 | 29000 ft | 402 kts | 220° |
| 2026-04-25 11:24 | 44.86653 | -0.08918 | 28540 ft | 397 kts | 220° |
| 2026-04-25 11:25 | 44.84513 | -0.11376 | 28076 ft | 393 kts | 220° |
| 2026-04-25 11:25 | 44.82400 | -0.13801 | 27609 ft | 390 kts | 220° |
| 2026-04-25 11:25 | 44.80336 | -0.16167 | 27167 ft | 386 kts | 220° |
| 2026-04-25 11:25 | 44.78256 | -0.18550 | 26716 ft | 383 kts | 220° |
| 2026-04-25 11:26 | 44.76196 | -0.20907 | 26275 ft | 380 kts | 220° |
| 2026-04-25 11:26 | 44.74149 | -0.23248 | 25838 ft | 378 kts | 220° |
| 2026-04-25 11:26 | 44.72114 | -0.25573 | 25408 ft | 375 kts | 220° |
| 2026-04-25 11:26 | 44.70094 | -0.27879 | 24974 ft | 373 kts | 220° |
| 2026-04-25 11:27 | 44.68758 | -0.29404 | 24689 ft | 372 kts | 220° |
| 2026-04-25 11:27 | 44.66752 | -0.31689 | 24256 ft | 370 kts | 220° |
| 2026-04-25 11:27 | 44.64748 | -0.33952 | 23830 ft | 369 kts | 218° |
| 2026-04-25 11:27 | 44.63389 | -0.35367 | 23637 ft | 365 kts | 216° |
| 2026-04-25 11:28 | 44.60611 | -0.38064 | 23094 ft | 360 kts | 215° |
| 2026-04-25 11:28 | 44.58540 | -0.40024 | 22661 ft | 358 kts | 215° |
| 2026-04-25 11:28 | 44.56485 | -0.41969 | 22239 ft | 355 kts | 215° |
| 2026-04-25 11:28 | 44.54444 | -0.43909 | 21811 ft | 353 kts | 215° |
| 2026-04-25 11:29 | 44.52417 | -0.45845 | 21395 ft | 351 kts | 216° |
| 2026-04-25 11:29 | 44.50433 | -0.47745 | 20986 ft | 349 kts | 216° |
| 2026-04-25 11:29 | 44.48432 | -0.49664 | 20582 ft | 347 kts | 216° |
| 2026-04-25 11:29 | 44.46439 | -0.51576 | 20172 ft | 346 kts | 216° |
| 2026-04-25 11:30 | 44.44459 | -0.53475 | 19765 ft | 345 kts | 216° |
| 2026-04-25 11:30 | 44.42481 | -0.55370 | 19356 ft | 343 kts | 216° |
| 2026-04-25 11:30 | 44.40514 | -0.57255 | 18956 ft | 342 kts | 216° |
| 2026-04-25 11:30 | 44.38547 | -0.59138 | 18554 ft | 341 kts | 216° |
| 2026-04-25 11:31 | 44.36590 | -0.61010 | 18085 ft | 341 kts | 216° |
| 2026-04-25 11:31 | 44.34640 | -0.62873 | 17656 ft | 339 kts | 216° |
| 2026-04-25 11:31 | 44.32699 | -0.64727 | 17238 ft | 337 kts | 216° |
| 2026-04-25 11:31 | 44.30771 | -0.66566 | 16827 ft | 335 kts | 216° |
| 2026-04-25 11:32 | 44.28854 | -0.68393 | 16432 ft | 333 kts | 216° |
| 2026-04-25 11:32 | 44.26943 | -0.70214 | 16014 ft | 331 kts | 216° |
| 2026-04-25 11:32 | 44.25054 | -0.72018 | 15592 ft | 330 kts | 216° |
| 2026-04-25 11:32 | 44.23176 | -0.73813 | 15190 ft | 329 kts | 216° |
| 2026-04-25 11:33 | 44.21280 | -0.75624 | 14792 ft | 327 kts | 216° |
| 2026-04-25 11:33 | 44.19399 | -0.77420 | 14397 ft | 326 kts | 216° |
| 2026-04-25 11:33 | 44.17548 | -0.79186 | 14013 ft | 325 kts | 216° |
| 2026-04-25 11:33 | 44.15681 | -0.80966 | 13569 ft | 323 kts | 216° |
| 2026-04-25 11:34 | 44.13823 | -0.82736 | 13154 ft | 321 kts | 216° |
| 2026-04-25 11:34 | 44.12011 | -0.84461 | 12757 ft | 319 kts | 216° |
| 2026-04-25 11:34 | 44.10187 | -0.86195 | 12370 ft | 316 kts | 216° |
| 2026-04-25 11:34 | 44.08378 | -0.87914 | 11982 ft | 314 kts | 216° |
| 2026-04-25 11:35 | 44.06575 | -0.89626 | 11606 ft | 312 kts | 216° |
| 2026-04-25 11:35 | 44.04786 | -0.91324 | 11231 ft | 310 kts | 216° |
| 2026-04-25 11:35 | 44.03008 | -0.93010 | 10850 ft | 309 kts | 216° |
| 2026-04-25 11:35 | 44.01246 | -0.94679 | 10625 ft | 302 kts | 215° |
| 2026-04-25 11:36 | 43.99542 | -0.96292 | 10485 ft | 292 kts | 215° |
| 2026-04-25 11:36 | 43.97885 | -0.97859 | 10343 ft | 283 kts | 215° |
| 2026-04-25 11:36 | 43.96280 | -0.99377 | 10240 ft | 275 kts | 216° |
| 2026-04-25 11:36 | 43.94735 | -1.00836 | 10024 ft | 270 kts | 216° |
| 2026-04-25 11:37 | 43.93185 | -1.02302 | 9734 ft | 269 kts | 216° |
| 2026-04-25 11:37 | 43.91645 | -1.03756 | 9437 ft | 267 kts | 216° |
| 2026-04-25 11:37 | 43.90117 | -1.05198 | 9155 ft | 265 kts | 215° |
| 2026-04-25 11:37 | 43.88591 | -1.06636 | 8867 ft | 264 kts | 216° |
| 2026-04-25 11:38 | 43.87076 | -1.08063 | 8571 ft | 262 kts | 216° |
| 2026-04-25 11:38 | 43.85573 | -1.09479 | 8301 ft | 261 kts | 215° |
| 2026-04-25 11:38 | 43.84074 | -1.10889 | 8025 ft | 259 kts | 215° |
| 2026-04-25 11:38 | 43.82583 | -1.12292 | 7744 ft | 258 kts | 215° |
| 2026-04-25 11:39 | 43.81101 | -1.13685 | 7467 ft | 257 kts | 215° |
| 2026-04-25 11:39 | 43.79629 | -1.15069 | 7189 ft | 256 kts | 215° |
| 2026-04-25 11:39 | 43.78169 | -1.16438 | 6913 ft | 256 kts | 215° |
| 2026-04-25 11:39 | 43.76679 | -1.17836 | 6635 ft | 255 kts | 215° |
| 2026-04-25 11:40 | 43.75221 | -1.19184 | 6345 ft | 255 kts | 211° |
| 2026-04-25 11:40 | 43.73542 | -1.19973 | 6054 ft | 256 kts | 191° |
| 2026-04-25 11:40 | 43.71790 | -1.20370 | 5778 ft | 255 kts | 191° |
| 2026-04-25 11:40 | 43.70038 | -1.20773 | 5497 ft | 255 kts | 191° |
| 2026-04-25 11:41 | 43.68291 | -1.21181 | 5217 ft | 254 kts | 191° |
| 2026-04-25 11:41 | 43.66553 | -1.21595 | 4944 ft | 253 kts | 191° |
| 2026-04-25 11:41 | 43.64822 | -1.22010 | 4658 ft | 252 kts | 191° |
| 2026-04-25 11:41 | 43.63066 | -1.22431 | 4231 ft | 258 kts | 191° |
| 2026-04-25 11:42 | 43.61292 | -1.22857 | 3918 ft | 259 kts | 191° |
| 2026-04-25 11:42 | 43.59533 | -1.23277 | 3736 ft | 253 kts | 191° |
| 2026-04-25 11:42 | 43.57833 | -1.23680 | 3631 ft | 244 kts | 192° |
| 2026-04-25 11:42 | 43.56191 | -1.24066 | 3531 ft | 233 kts | 192° |
| 2026-04-25 11:43 | 43.54634 | -1.24434 | 3387 ft | 222 kts | 192° |
| 2026-04-25 11:43 | 43.53138 | -1.24785 | 3205 ft | 214 kts | 192° |
| 2026-04-25 11:43 | 43.51696 | -1.25122 | 3017 ft | 207 kts | 193° |
| 2026-04-25 11:43 | 43.50282 | -1.25453 | 2872 ft | 205 kts | 192° |
| 2026-04-25 11:44 | 43.48899 | -1.25795 | 2692 ft | 202 kts | 198° |
| 2026-04-25 11:44 | 43.47808 | -1.26827 | 2514 ft | 187 kts | 243° |
| 2026-04-25 11:44 | 43.47467 | -1.28490 | 2502 ft | 181 kts | 260° |
| 2026-04-25 11:44 | 43.47272 | -1.30205 | 2504 ft | 182 kts | 262° |
| 2026-04-25 11:45 | 43.47121 | -1.31902 | 2487 ft | 172 kts | 266° |
| 2026-04-25 11:45 | 43.47061 | -1.33503 | 2469 ft | 163 kts | 268° |
| 2026-04-25 11:45 | 43.47035 | -1.35041 | 2482 ft | 163 kts | 269° |
| 2026-04-25 11:45 | 43.47016 | -1.36610 | 2309 ft | 160 kts | 269° |
| 2026-04-25 11:46 | 43.46998 | -1.38116 | 2091 ft | 153 kts | 269° |
| 2026-04-25 11:46 | 43.46982 | -1.39521 | 1916 ft | 140 kts | 269° |
| 2026-04-25 11:46 | 43.46966 | -1.40807 | 1728 ft | 131 kts | 269° |
| 2026-04-25 11:46 | 43.46951 | -1.42018 | 1580 ft | 122 kts | 270° |
| 2026-04-25 11:47 | 43.46938 | -1.43197 | 1382 ft | 123 kts | 270° |
| 2026-04-25 11:47 | 43.46926 | -1.44392 | 1236 ft | 126 kts | 269° |
| 2026-04-25 11:47 | 43.46912 | -1.45605 | 1019 ft | 125 kts | 270° |
| 2026-04-25 11:47 | 43.46899 | -1.46790 | 886 ft | 124 kts | 269° |
| 2026-04-25 11:48 | 43.46883 | -1.47982 | 696 ft | 121 kts | 269° |
| 2026-04-25 11:48 | 43.46866 | -1.49143 | 493 ft | 121 kts | 271° |
| 2026-04-25 11:48 | 43.46859 | -1.50316 | 355 ft | 123 kts | 270° |
| 2026-04-25 11:48 | 43.46851 | -1.51437 | 248 ft | 107 kts | 269° |
| 2026-04-25 11:49 | 43.46842 | -1.52168 | 248 ft | 48 kts | 269° |
| 2026-04-25 11:49 | 43.46837 | -1.52593 | 248 ft | 42 kts | 269° |
| 2026-04-25 11:49 | 43.46834 | -1.52942 | 248 ft | 19 kts | 269° |
| 2026-04-25 11:49 | 43.46846 | -1.53114 | 248 ft | 18 kts | 302° |
| 2026-04-25 11:50 | 43.46921 | -1.53176 | 246 ft | 0 kts | 335° |
| 2026-04-25 11:50 | 43.46929 | -1.53181 | 246 ft | 4 kts | 335° |
| 2026-04-25 11:51 | 43.46957 | -1.53198 | 246 ft | 5 kts | 338° |
| 2026-04-25 11:51 | 43.46993 | -1.53204 | 246 ft | 6 kts | 7° |
| 2026-04-25 11:51 | 43.47032 | -1.53174 | 246 ft | 7 kts | 46° |
| 2026-04-25 11:51 | 43.47041 | -1.53159 | 246 ft | 1 kts | 53° |
| 2026-04-25 11:52 | 43.47062 | -1.53141 | 246 ft | 6 kts | 26° |
| 2026-04-25 11:52 | 43.47101 | -1.53122 | 246 ft | 6 kts | 18° |
| 2026-04-25 11:52 | 43.47117 | -1.53114 | 246 ft | 0 kts | 19° |
| 2026-04-25 11:53 | 43.47116 | -1.53115 | 246 ft | 0 kts | 19° |